Time;durP1;ratioP1;P1;durP2;ratioP2;P2;SDS_P1;SDS_P2;PMS_P1;PMS_P2;Temp;Humidity;BMP_temperature;BMP_pressure;BME280_temperature;BME280_humidity;BME280_pressure;Samples;Min_cycle;Max_cycle;Signal;HPM_P1;HPM_P2
2023/10/02 00:01:07;;;;;;;14.10;9.38;;;;;;;15.91;100.00;101866.78;5008395;28;20037;-67
2023/10/02 00:03:40;;;;;;;14.20;9.82;;;;;;;15.91;100.00;101864.16;5009221;28;20527;-68
2023/10/02 00:06:07;;;;;;;12.98;8.80;;;;;;;15.90;100.00;101859.81;5008729;28;20057;-68
2023/10/02 00:08:35;;;;;;;13.70;9.13;;;;;;;15.89;100.00;101863.25;5007722;28;20084;-67
2023/10/02 00:11:41;;;;;;;14.85;8.82;;;;;;;15.85;100.00;101863.16;5007874;28;20083;-67
2023/10/02 00:14:27;;;;;;;14.57;8.70;;;;;;;15.86;100.00;101856.22;4999143;28;20028;-68
2023/10/02 00:17:00;;;;;;;14.38;9.27;;;;;;;15.83;100.00;101854.41;5008770;28;20087;-67
2023/10/02 00:19:36;;;;;;;14.45;8.80;;;;;;;15.82;100.00;101857.88;5008239;28;20029;-68
2023/10/02 00:22:34;;;;;;;15.48;8.95;;;;;;;15.78;100.00;101863.84;5007650;28;20037;-67
2023/10/02 00:25:01;;;;;;;14.90;8.88;;;;;;;15.75;100.00;101866.38;5008546;28;20021;-68
2023/10/02 00:27:29;;;;;;;11.40;8.40;;;;;;;15.70;100.00;101868.00;5008472;28;20029;-68
2023/10/02 00:29:58;;;;;;;12.73;9.25;;;;;;;15.65;100.00;101860.00;5008783;28;20025;-67
2023/10/02 00:32:31;;;;;;;14.43;8.88;;;;;;;15.58;100.00;101869.41;5008462;28;20041;-68
2023/10/02 00:35:00;;;;;;;12.15;8.07;;;;;;;15.56;100.00;101860.66;5008074;28;20112;-67
2023/10/02 00:37:44;;;;;;;15.35;9.63;;;;;;;15.54;100.00;101866.69;5008812;28;20029;-68
2023/10/02 00:40:26;;;;;;;14.80;9.32;;;;;;;15.51;100.00;101862.25;5008693;28;20065;-67
2023/10/02 00:42:58;;;;;;;14.43;9.88;;;;;;;15.51;100.00;101862.25;5008492;28;20030;-67
2023/10/02 00:45:42;;;;;;;16.50;9.95;;;;;;;15.51;100.00;101857.03;5007889;28;20029;-67
2023/10/02 00:48:26;;;;;;;16.75;9.20;;;;;;;15.49;100.00;101851.75;5007643;28;20052;-68
2023/10/02 00:50:59;;;;;;;12.45;8.48;;;;;;;15.47;100.00;101845.59;5024697;28;20032;-67
2023/10/02 00:53:45;;;;;;;13.43;9.52;;;;;;;15.44;100.00;101849.84;5027079;28;20172;-67
2023/10/02 00:56:24;;;;;;;14.13;8.52;;;;;;;15.40;100.00;101848.88;5005012;28;20116;-68
2023/10/02 00:58:55;;;;;;;13.40;8.07;;;;;;;15.34;100.00;101849.59;5025677;28;20036;-67
2023/10/02 01:01:20;;;;;;;;;;;;;;;15.30;100.00;101847.75;5027036;28;20115;-67
2023/10/02 01:06:29;;;;;;;12.52;9.10;;;;;;;15.27;100.00;101847.69;5030109;28;20082;-67
2023/10/02 01:08:55;;;;;;;14.30;9.27;;;;;;;15.24;100.00;101842.34;5030469;28;20029;-67
2023/10/02 01:11:20;;;;;;;15.65;9.30;;;;;;;15.20;100.00;101850.97;5029631;28;20097;-67
2023/10/02 01:13:46;;;;;;;14.18;8.98;;;;;;;15.17;100.00;101851.72;5030636;28;20395;-67
2023/10/02 01:16:13;;;;;;;16.48;9.73;;;;;;;15.13;100.00;101848.16;5029820;28;20037;-68
2023/10/02 01:18:39;;;;;;;13.85;8.63;;;;;;;15.11;100.00;101844.59;5005420;28;20028;-68
2023/10/02 01:21:11;;;;;;;16.98;9.40;;;;;;;15.09;100.00;101841.06;5029907;28;20183;-68
2023/10/02 01:23:41;;;;;;;14.88;9.27;;;;;;;15.09;100.00;101837.59;5029872;28;20025;-68
2023/10/02 01:26:07;;;;;;;15.57;9.35;;;;;;;15.08;100.00;101836.69;5029132;28;20018;-67
2023/10/02 01:28:51;;;;;;;13.93;9.57;;;;;;;15.05;100.00;101836.63;5029989;28;20048;-68
2023/10/02 01:31:35;;;;;;;14.50;9.73;;;;;;;15.01;100.00;101839.97;5028216;28;20515;-68
2023/10/02 01:34:04;;;;;;;15.23;8.32;;;;;;;14.98;100.00;101840.78;5029246;28;20500;-68
2023/10/02 01:36:32;;;;;;;14.05;9.27;;;;;;;14.96;100.00;101836.34;5029754;28;20036;-68
2023/10/02 01:39:12;;;;;;;14.88;9.02;;;;;;;14.94;100.00;101832.78;5029309;28;20029;-67
2023/10/02 01:41:38;;;;;;;16.70;9.85;;;;;;;14.92;100.00;101826.63;5029222;28;20072;-68
2023/10/02 01:44:07;;;;;;;16.20;9.55;;;;;;;14.89;100.00;101833.53;5016505;28;20025;-66
2023/10/02 01:46:36;;;;;;;16.58;9.95;;;;;;;14.87;100.00;101827.41;5030172;28;20396;-68
2023/10/02 01:49:02;;;;;;;13.60;9.57;;;;;;;14.85;100.00;101830.78;5029277;28;20057;-68
2023/10/02 01:51:27;;;;;;;15.25;8.95;;;;;;;14.83;100.00;101825.53;5029838;28;20049;-67
2023/10/02 01:54:01;;;;;;;14.18;9.57;;;;;;;14.84;100.00;101832.50;5030341;28;20517;-68
2023/10/02 01:56:29;;;;;;;13.05;9.00;;;;;;;14.84;100.00;101836.88;5029534;28;20203;-67
2023/10/02 01:59:08;;;;;;;16.05;9.35;;;;;;;14.81;100.00;101823.66;5016820;28;20029;-68
2023/10/02 02:01:46;;;;;;;16.52;9.57;;;;;;;14.80;100.00;101834.97;5029682;28;20148;-67
2023/10/02 02:04:14;;;;;;;12.70;8.98;;;;;;;14.81;100.00;101832.41;5007573;28;20041;-66
2023/10/02 02:06:51;;;;;;;16.05;9.25;;;;;;;14.81;100.00;101829.81;5029430;28;20030;-67
2023/10/02 02:09:23;;;;;;;15.05;9.35;;;;;;;14.81;100.00;101827.19;5029420;28;20029;-68
2023/10/02 02:12:05;;;;;;;15.07;9.23;;;;;;;14.78;100.00;101821.88;5025601;28;20029;-68
2023/10/02 02:14:31;;;;;;;14.45;9.52;;;;;;;14.74;100.00;101830.44;5010438;28;20025;-67
2023/10/02 02:16:57;;;;;;;16.88;9.95;;;;;;;14.70;100.00;101831.16;5028983;28;20040;-67
2023/10/02 02:19:23;;;;;;;14.75;9.70;;;;;;;14.67;100.00;101831.06;5015976;28;20045;-66
2023/10/02 02:21:49;;;;;;;13.20;9.38;;;;;;;14.64;100.00;101829.28;5016520;28;20041;-68
2023/10/02 02:24:14;;;;;;;16.83;10.07;;;;;;;14.61;100.00;101827.44;5029222;28;20034;-66
2023/10/02 02:26:40;;;;;;;14.10;9.52;;;;;;;14.60;100.00;101824.78;5029157;28;20065;-67
2023/10/02 02:29:23;;;;;;;13.85;9.23;;;;;;;14.56;100.00;101818.59;5028356;28;20021;-67
2023/10/02 02:31:49;;;;;;;16.02;9.50;;;;;;;14.51;100.00;101828.91;5007824;28;20018;-66
2023/10/02 02:34:17;;;;;;;19.15;9.73;;;;;;;14.48;100.00;101825.31;5028811;28;20056;-68
2023/10/02 02:36:47;;;;;;;15.77;9.15;;;;;;;14.44;100.00;101820.81;5030135;28;20110;-67
2023/10/02 02:39:15;;;;;;;15.45;9.27;;;;;;;14.40;100.00;101827.66;5028495;28;20028;-68
2023/10/02 02:41:45;;;;;;;15.48;9.40;;;;;;;14.38;100.00;101826.72;5028585;28;20182;-67
2023/10/02 02:44:36;;;;;;;14.77;8.98;;;;;;;14.35;100.00;101822.31;5015372;28;20433;-68
2023/10/02 02:47:07;;;;;;;13.32;8.27;;;;;;;14.33;100.00;101813.56;5028199;28;20035;-67
2023/10/02 02:49:51;;;;;;;14.57;8.95;;;;;;;14.32;100.00;101811.75;5028643;28;20086;-68
2023/10/02 02:52:24;;;;;;;16.13;9.18;;;;;;;14.30;100.00;101813.47;5026761;28;20320;-67
2023/10/02 02:54:58;;;;;;;13.85;8.75;;;;;;;14.27;100.00;101803.81;5028330;28;20417;-67
2023/10/02 02:57:27;;;;;;;15.38;8.65;;;;;;;14.28;100.00;101809.91;5027390;28;20029;-67
2023/10/02 03:00:24;;;;;;;17.88;9.52;;;;;;;14.26;100.00;101808.97;5026243;28;20025;-67
2023/10/02 03:02:40;;;;;;;13.48;8.32;;;;;;;14.23;100.00;101808.88;5006903;28;20510;-68
2023/10/02 03:05:11;;;;;;;15.98;9.05;;;;;;;14.23;100.00;101807.13;5026650;28;20030;-67
2023/10/02 03:07:39;;;;;;;14.20;9.63;;;;;;;14.20;100.00;101800.94;5027483;28;20032;-66
2023/10/02 03:10:09;;;;;;;15.70;9.40;;;;;;;14.17;100.00;101796.53;5025700;28;20068;-65
2023/10/02 03:12:34;;;;;;;14.30;9.90;;;;;;;14.16;100.00;101802.56;5028087;28;20018;-67
2023/10/02 03:14:59;;;;;;;13.60;9.45;;;;;;;14.13;100.00;101798.16;5026663;28;20045;-68
2023/10/02 03:17:30;;;;;;;17.33;10.27;;;;;;;14.15;100.00;101792.97;5027503;28;20035;-67
2023/10/02 03:19:58;;;;;;;;;;;;;;;14.16;100.00;101793.03;5027435;28;20068;-66
2023/10/02 03:22:24;;;;;;;17.45;8.98;;;;;;;14.20;100.00;101785.31;5027893;28;20378;-65
2023/10/02 03:24:51;;;;;;;18.05;9.57;;;;;;;14.24;100.00;101776.75;5026983;28;20029;-68
2023/10/02 03:27:17;;;;;;;15.90;9.65;;;;;;;14.26;100.00;101769.88;5028003;28;20060;-65
2023/10/02 03:29:43;;;;;;;16.77;10.65;;;;;;;14.29;100.00;101775.16;5026924;28;20394;-67
2023/10/02 03:32:10;;;;;;;16.00;9.90;;;;;;;14.33;100.00;101776.16;5027407;28;20094;-67
2023/10/02 03:34:35;;;;;;;18.25;9.90;;;;;;;14.36;100.00;101771.91;5026767;28;20132;-68
2023/10/02 03:42:25;;;;;;;15.02;10.23;;;;;;;14.44;100.00;101780.00;5025530;28;20055;-67
2023/10/02 03:44:53;;;;;;;15.65;9.55;;;;;;;14.46;100.00;101782.66;5009037;28;20108;-67
2023/10/02 03:47:19;;;;;;;15.25;9.93;;;;;;;14.48;100.00;101774.00;5008481;28;20788;-67
2023/10/02 03:49:44;;;;;;;15.63;9.80;;;;;;;14.49;100.00;101777.50;5008312;28;20053;-67
2023/10/02 03:52:13;;;;;;;16.85;9.40;;;;;;;14.52;100.00;101782.81;5008191;28;20065;-67
2023/10/02 03:54:39;;;;;;;17.55;9.50;;;;;;;14.53;100.00;101782.84;5008022;28;20088;-66
2023/10/02 03:57:07;;;;;;;16.40;10.13;;;;;;;14.55;100.00;101782.94;5008221;28;20188;-68
2023/10/02 03:59:32;;;;;;;16.10;10.57;;;;;;;14.56;100.00;101786.41;5008022;28;20036;-67
2023/10/02 04:02:24;;;;;;;13.73;8.82;;;;;;;14.54;100.00;101775.94;5008263;28;20112;-66
2023/10/02 04:04:46;;;;;;;13.82;9.82;;;;;;;14.52;100.00;101786.31;5008426;28;20415;-67
2023/10/02 04:07:12;;;;;;;16.95;9.35;;;;;;;14.48;100.00;101787.06;5007735;28;20036;-68
2023/10/02 04:09:38;;;;;;;16.75;9.80;;;;;;;14.44;100.00;101786.94;5008505;28;20272;-68
2023/10/02 04:12:06;;;;;;;15.98;9.52;;;;;;;14.41;100.00;101787.69;5007972;28;20375;-68
2023/10/02 04:14:32;;;;;;;13.57;8.68;;;;;;;14.40;100.00;101789.44;5008162;28;20037;-68
2023/10/02 04:17:20;;;;;;;14.98;9.13;;;;;;;14.35;100.00;101783.19;5008536;28;20096;-67
2023/10/02 04:20:04;;;;;;;14.32;9.63;;;;;;;14.32;100.00;101782.22;5008377;28;20054;-67
2023/10/02 04:22:31;;;;;;;16.00;9.65;;;;;;;14.28;100.00;101783.84;5007884;28;20034;-66
2023/10/02 04:25:03;;;;;;;14.48;10.13;;;;;;;14.26;100.00;101780.31;5008178;28;20493;-67
2023/10/02 04:32:42;;;;;;;14.98;9.23;;;;;;;14.13;100.00;101779.00;5026453;28;20052;-68
2023/10/02 04:35:44;;;;;;;15.15;9.32;;;;;;;14.12;100.00;101778.13;5027611;28;20424;-67
2023/10/02 04:37:58;;;;;;;18.17;9.57;;;;;;;14.11;100.00;101781.56;5026624;28;20111;-68
2023/10/02 04:40:27;;;;;;;14.52;10.10;;;;;;;14.10;100.00;101790.25;5026860;28;20053;-67
2023/10/02 04:43:09;;;;;;;13.75;8.88;;;;;;;14.08;100.00;101786.69;5020494;28;20022;-67
2023/10/02 04:45:36;;;;;;;16.20;9.98;;;;;;;14.06;100.00;101785.75;5019767;28;20025;-68
2023/10/02 04:48:02;;;;;;;13.93;9.63;;;;;;;14.04;100.00;101784.81;5015876;28;20091;-67
2023/10/02 04:52:55;;;;;;;15.02;9.45;;;;;;;14.02;100.00;101782.16;5016040;28;20048;-68
2023/10/02 04:55:24;;;;;;;14.73;9.38;;;;;;;14.00;100.00;101777.72;5011468;28;20032;-67
2023/10/02 04:57:56;;;;;;;18.15;9.68;;;;;;;13.99;100.00;101775.97;5007893;28;20026;-67
2023/10/02 05:00:33;;;;;;;14.85;8.88;;;;;;;13.98;100.00;101774.16;5020762;28;20026;-67
2023/10/02 05:03:09;;;;;;;16.48;9.63;;;;;;;13.97;100.00;101773.31;5007301;28;20109;-67
2023/10/02 05:05:47;;;;;;;15.13;10.07;;;;;;;13.95;100.00;101774.97;5007620;28;20037;-68
2023/10/02 05:08:20;;;;;;;18.05;9.88;;;;;;;13.92;100.00;101769.66;5007668;28;20026;-68
2023/10/02 05:10:56;;;;;;;15.82;9.90;;;;;;;13.90;100.00;101772.22;5007398;28;20018;-67
2023/10/02 05:16:07;;;;;;;15.48;9.43;;;;;;;13.89;100.00;101770.44;5007661;28;20557;-68
2023/10/02 05:18:33;;;;;;;17.02;9.85;;;;;;;13.89;100.00;101782.56;5008094;28;20034;-67
2023/10/02 05:21:01;;;;;;;15.55;10.68;;;;;;;13.88;100.00;101779.09;5007546;28;20029;-68
2023/10/02 05:23:28;;;;;;;14.48;9.23;;;;;;;13.87;100.00;101774.72;5007830;28;20104;-68
2023/10/02 05:25:54;;;;;;;15.93;9.40;;;;;;;13.84;100.00;101779.81;5007369;28;20030;-67
2023/10/02 05:28:20;;;;;;;17.23;10.18;;;;;;;13.81;100.00;101780.59;5006299;28;20496;-68
2023/10/02 05:30:46;;;;;;;13.05;9.07;;;;;;;13.78;100.00;101777.91;5005759;28;20017;-67
2023/10/02 05:33:15;;;;;;;15.73;10.20;;;;;;;13.76;100.00;101783.91;5016986;28;20021;-67
2023/10/02 05:35:45;;;;;;;14.55;9.40;;;;;;;13.73;100.00;101778.56;5021536;28;20037;-66
2023/10/02 05:38:19;;;;;;;13.30;9.77;;;;;;;13.73;100.00;101778.56;5014430;28;20036;-67
2023/10/02 05:40:47;;;;;;;17.80;9.70;;;;;;;13.72;100.00;101782.03;5014587;28;20339;-67
2023/10/02 05:43:17;;;;;;;14.25;8.98;;;;;;;13.71;100.00;101778.53;5015794;28;20034;-68
2023/10/02 05:50:56;;;;;;;18.85;11.57;;;;;;;13.73;100.00;101781.16;5026411;28;20025;-67
2023/10/02 05:53:26;;;;;;;17.33;10.70;;;;;;;13.75;100.00;101789.94;5029753;28;20052;-67
2023/10/02 05:58:37;;;;;;;17.45;10.75;;;;;;;13.78;100.00;101797.88;5008188;28;20397;-67
2023/10/02 06:01:18;;;;;;;17.27;10.63;;;;;;;13.79;100.00;101804.84;4997713;28;20034;-66
2023/10/02 06:03:43;;;;;;;;;;;;;;;13.81;100.00;101806.66;5008350;28;20458;-67
2023/10/02 06:06:21;;;;;;;16.50;10.27;;;;;;;13.82;100.00;101810.16;5007821;28;19968;-67
2023/10/02 06:08:51;;;;;;;19.67;10.90;;;;;;;13.85;100.00;101804.16;5007550;28;20033;-67
2023/10/02 06:11:26;;;;;;;17.00;11.57;;;;;;;13.86;100.00;101801.59;5009328;28;20030;-68
2023/10/02 06:13:57;;;;;;;20.95;12.27;;;;;;;13.88;100.00;101797.34;5009280;28;20022;-68
2023/10/02 06:16:29;;;;;;;20.42;12.45;;;;;;;13.93;100.00;101800.97;5010520;28;20057;-68
2023/10/02 06:19:02;;;;;;;18.85;11.68;;;;;;;13.98;100.00;101795.03;5010185;28;20470;-68
2023/10/02 06:21:32;;;;;;;22.70;13.25;;;;;;;14.03;100.00;101803.91;5010032;28;20426;-68
2023/10/02 06:24:00;;;;;;;23.35;13.98;;;;;;;14.08;100.00;101794.50;5009872;28;20026;-68
2023/10/02 06:26:49;;;;;;;19.58;12.50;;;;;;;14.15;100.00;101804.31;5009274;28;20447;-68
2023/10/02 06:29:16;;;;;;;22.52;14.23;;;;;;;14.21;100.00;101802.72;5009853;28;20482;-68
2023/10/02 06:31:42;;;;;;;21.10;13.43;;;;;;;14.27;100.00;101805.53;5010192;28;20379;-68
2023/10/02 06:34:11;;;;;;;21.65;12.82;;;;;;;14.32;100.00;101806.53;5010375;28;20543;-68
2023/10/02 06:36:45;;;;;;;22.92;13.43;;;;;;;14.36;100.00;101803.22;5009346;28;20029;-68
2023/10/02 06:39:13;;;;;;;19.85;12.80;;;;;;;14.43;100.00;101804.28;5008746;28;20029;-68
2023/10/02 06:41:39;;;;;;;19.92;11.93;;;;;;;14.49;100.00;101808.81;5008521;28;20081;-69
2023/10/02 06:44:14;;;;;;;18.08;12.52;;;;;;;14.54;100.00;101812.44;5007646;28;20446;-68
2023/10/02 06:46:53;;;;;;;20.65;12.02;;;;;;;14.61;100.00;101798.75;5018366;28;20072;-69
2023/10/02 06:49:23;;;;;;;22.52;12.60;;;;;;;14.68;100.00;101812.88;5021445;28;20029;-69
2023/10/02 06:51:49;;;;;;;20.95;12.40;;;;;;;14.74;100.00;101815.66;5008574;28;20049;-67
2023/10/02 06:54:21;;;;;;;21.52;12.63;;;;;;;14.81;100.00;101815.84;4996723;28;20041;-69
2023/10/02 06:56:46;;;;;;;20.23;11.65;;;;;;;14.87;100.00;101816.06;5009728;28;20241;-68
2023/10/02 06:59:12;;;;;;;18.95;11.80;;;;;;;14.94;100.00;101814.53;5009975;28;20323;-68
2023/10/02 07:02:01;;;;;;;18.90;11.32;;;;;;;15.01;100.00;101806.03;5009472;28;20022;-68
2023/10/02 07:04:35;;;;;;;17.65;10.77;;;;;;;15.07;100.00;101807.94;5009106;28;20030;-68
2023/10/02 07:07:07;;;;;;;20.48;11.18;;;;;;;15.13;100.00;101802.88;5009799;28;20026;-69
2023/10/02 07:09:34;;;;;;;18.33;11.07;;;;;;;15.18;100.00;101806.50;5009561;28;20026;-69
2023/10/02 07:12:08;;;;;;;18.45;11.25;;;;;;;15.24;100.00;101808.41;5008700;28;20439;-67
2023/10/02 07:14:41;;;;;;;21.50;10.38;;;;;;;15.30;100.00;101811.22;5009037;28;20120;-69
2023/10/02 07:17:11;;;;;;;18.63;11.10;;;;;;;15.38;100.00;101807.94;5009131;28;20079;-69
2023/10/02 07:19:44;;;;;;;20.38;11.68;;;;;;;15.46;100.00;101806.38;5009912;28;20377;-69
2023/10/02 07:22:16;;;;;;;17.63;11.35;;;;;;;15.55;100.00;101806.66;5010184;28;20025;-69
2023/10/02 07:24:48;;;;;;;20.33;11.35;;;;;;;15.70;100.00;101807.91;5009504;28;20493;-68
2023/10/02 07:27:28;;;;;;;18.02;11.02;;;;;;;15.92;100.00;101811.06;5012092;28;20040;-68
2023/10/02 07:29:56;;;;;;;19.25;11.27;;;;;;;16.21;100.00;101808.31;5013543;28;20222;-67
2023/10/02 07:32:24;;;;;;;22.63;11.68;;;;;;;16.47;100.00;101810.66;5017317;28;20111;-68
2023/10/02 07:34:51;;;;;;;17.70;11.05;;;;;;;16.64;100.00;101802.31;5022866;28;20379;-66
2023/10/02 07:37:21;;;;;;;22.05;11.68;;;;;;;16.82;100.00;101812.28;5023078;28;20029;-68
2023/10/02 07:39:48;;;;;;;19.15;12.32;;;;;;;17.06;100.00;101813.66;5008720;28;20022;-68
2023/10/02 07:42:16;;;;;;;20.92;12.23;;;;;;;17.19;100.00;101812.19;5010736;28;20136;-68
2023/10/02 07:44:41;;;;;;;21.88;11.73;;;;;;;17.19;100.00;101817.44;5006579;28;20101;-68
2023/10/02 07:47:16;;;;;;;21.48;11.38;;;;;;;17.19;100.00;101812.19;5006592;28;20113;-67
2023/10/02 07:49:46;;;;;;;19.50;10.70;;;;;;;17.20;100.00;101810.47;5006014;28;20069;-68
2023/10/02 07:52:26;;;;;;;19.43;11.73;;;;;;;17.21;100.00;101814.84;5007044;28;20077;-68
2023/10/02 07:54:58;;;;;;;18.77;11.13;;;;;;;17.20;100.00;101819.19;5006878;28;20276;-68
2023/10/02 07:57:24;;;;;;;17.90;10.98;;;;;;;17.18;100.00;101820.88;5011740;28;20029;-68
2023/10/02 07:59:49;;;;;;;23.08;11.52;;;;;;;17.16;100.00;101812.16;5027597;28;20347;-67
2023/10/02 08:02:24;;;;;;;16.48;10.95;;;;;;;17.14;100.00;101804.22;5025782;28;20083;-68
2023/10/02 08:04:51;;;;;;;20.13;11.45;;;;;;;17.14;100.00;101813.84;5026875;28;20021;-67
2023/10/02 08:07:17;;;;;;;20.40;11.95;;;;;;;17.10;100.00;101811.97;5027898;28;20106;-67
2023/10/02 08:09:47;;;;;;;20.35;12.05;;;;;;;17.09;100.00;101810.22;5024352;28;20099;-68
2023/10/02 08:12:29;;;;;;;19.92;11.45;;;;;;;17.08;100.00;101811.94;5015657;28;20029;-68
2023/10/02 08:15:01;;;;;;;21.08;11.52;;;;;;;17.05;100.00;101809.28;5016507;28;20014;-68
2023/10/02 08:20:15;;;;;;;20.80;12.32;;;;;;;17.27;100.00;101823.69;5018028;28;20030;-68
2023/10/02 08:22:44;;;;;;;17.90;10.70;;;;;;;17.53;100.00;101819.81;5010008;28;20140;-68
2023/10/02 08:25:13;;;;;;;17.75;11.57;;;;;;;17.87;100.00;101827.41;5017378;28;20033;-68
2023/10/02 08:27:57;;;;;;;20.02;11.75;;;;;;;18.24;100.00;101825.41;5017629;28;20128;-67
2023/10/02 08:30:36;;;;;;;24.95;11.30;;;;;;;18.60;100.00;101822.44;5025373;28;20752;-68
2023/10/02 08:33:14;;;;;;;19.45;11.07;;;;;;;19.01;100.00;101821.22;5025008;28;20021;-68
2023/10/02 08:35:47;;;;;;;17.73;11.68;;;;;;;19.37;100.00;101823.41;5024640;28;20037;-68
2023/10/02 08:38:21;;;;;;;16.85;11.60;;;;;;;19.76;100.00;101826.41;5026094;28;20424;-68
2023/10/02 08:40:57;;;;;;;20.80;12.02;;;;;;;20.13;100.00;101828.53;5024161;28;20050;-67
2023/10/02 08:43:27;;;;;;;19.95;11.98;;;;;;;20.50;100.00;101827.88;5015427;28;20053;-68
2023/10/02 08:45:53;;;;;;;20.17;11.38;;;;;;;20.84;100.00;101830.69;5020515;28;20068;-68
2023/10/02 08:48:23;;;;;;;22.35;12.43;;;;;;;20.91;100.00;101823.69;5018920;28;20385;-67
2023/10/02 08:50:49;;;;;;;20.60;11.70;;;;;;;21.10;100.00;101824.66;5008444;28;20080;-68
2023/10/02 08:53:21;;;;;;;17.48;11.52;;;;;;;21.26;100.00;101831.75;5019499;28;20013;-68
2023/10/02 08:58:27;;;;;;;19.45;11.98;;;;;;;21.22;100.00;101830.88;5014757;28;20472;-68
2023/10/02 09:06:53;;;;;;;18.58;11.45;;;;;;;20.98;100.00;101800.91;4986154;28;20402;-68
2023/10/02 09:11:52;;;;;;;18.38;11.43;;;;;;;20.72;100.00;101813.06;5014112;28;20038;-68
2023/10/02 09:16:47;;;;;;;16.67;11.80;;;;;;;20.54;100.00;101810.34;5013561;28;20168;-68
2023/10/02 09:19:31;;;;;;;20.20;11.18;;;;;;;20.45;100.00;101816.44;5017176;28;20060;-68
2023/10/02 09:22:12;;;;;;;17.55;11.90;;;;;;;20.35;100.00;101819.00;5015922;28;20021;-69
2023/10/02 09:24:40;;;;;;;17.92;11.65;;;;;;;20.28;100.00;101812.84;5017942;28;20117;-69
2023/10/02 09:27:26;;;;;;;19.88;12.05;;;;;;;20.22;100.00;101809.28;5023597;28;20026;-68
2023/10/02 09:30:17;;;;;;;21.60;12.00;;;;;;;20.15;100.00;101809.22;5015492;28;20030;-68
2023/10/02 09:32:47;;;;;;;19.23;12.20;;;;;;;20.08;100.00;101807.44;5020230;28;20017;-68
2023/10/02 09:35:23;;;;;;;16.98;10.98;;;;;;;20.00;100.00;101804.69;5017130;28;20043;-69
2023/10/02 09:38:04;;;;;;;18.38;11.43;;;;;;;19.97;100.00;101804.69;5024903;28;20022;-69
2023/10/02 09:43:35;;;;;;;19.13;11.05;;;;;;;19.88;100.00;101805.47;4989754;28;20100;-69
2023/10/02 09:46:06;;;;;;;18.67;11.93;;;;;;;19.84;100.00;101814.19;5016876;28;20034;-68
2023/10/02 09:48:46;;;;;;;18.83;11.18;;;;;;;19.78;100.00;101799.28;5017238;28;20482;-68
2023/10/02 09:51:38;;;;;;;20.33;11.40;;;;;;;19.72;100.00;101806.22;5005938;28;20024;-68
2023/10/02 09:54:13;;;;;;;16.30;9.93;;;;;;;19.70;100.00;101806.19;5019167;28;20394;-68
2023/10/02 09:56:54;;;;;;;17.67;10.63;;;;;;;19.72;100.00;101798.31;5022457;28;20059;-68
2023/10/02 09:59:20;;;;;;;;;;;;;;;19.73;100.00;101801.00;5011943;28;20026;-68
2023/10/02 10:02:47;;;;;;;17.83;10.75;;;;;;;19.80;100.00;101801.91;5018396;28;20498;-68
2023/10/02 10:05:00;;;;;;;21.00;12.35;;;;;;;19.86;100.00;101801.94;5018575;28;20254;-68
2023/10/02 10:07:46;;;;;;;19.27;12.98;;;;;;;19.96;100.00;101799.41;5026914;28;20033;-68
2023/10/02 10:10:27;;;;;;;22.40;12.77;;;;;;;20.04;100.00;101803.84;5023813;28;20026;-68
2023/10/02 10:12:55;;;;;;;;;;;;;;;20.11;100.00;101802.19;5027365;28;20116;-67
2023/10/02 10:15:26;;;;;;;18.83;11.75;;;;;;;20.20;100.00;101795.25;5025603;28;19913;-68
2023/10/02 10:17:51;;;;;;;;;;;;;;;20.28;100.00;101794.41;5025431;28;20021;-69
2023/10/02 10:20:23;;;;;;;20.27;12.30;;;;;;;20.43;100.00;101791.88;5013470;28;20449;-68
2023/10/02 10:22:55;;;;;;;23.05;13.00;;;;;;;20.54;100.00;101784.03;5021865;28;20080;-70
2023/10/02 10:27:58;;;;;;;22.92;13.30;;;;;;;20.65;100.00;101787.59;5018798;28;20124;-70
2023/10/02 10:30:39;;;;;;;19.48;11.80;;;;;;;20.79;100.00;101785.03;5018634;28;20025;-70
2023/10/02 10:35:57;;;;;;;20.65;13.00;;;;;;;20.99;100.00;101779.00;5007717;28;19965;-70
2023/10/02 10:38:37;;;;;;;21.30;11.75;;;;;;;21.09;100.00;101783.41;5016983;28;20072;-70
2023/10/02 10:41:09;;;;;;;18.48;11.73;;;;;;;21.15;100.00;101779.91;5015568;28;20058;-70
2023/10/02 10:46:16;;;;;;;17.98;11.13;;;;;;;21.22;100.00;101772.91;5005196;28;20033;-70
2023/10/02 10:48:45;;;;;;;20.23;12.10;;;;;;;21.29;100.00;101769.41;5027540;28;20342;-70
2023/10/02 10:51:27;;;;;;;19.17;12.27;;;;;;;21.40;100.00;101769.41;5029465;28;20104;-68
2023/10/02 10:53:54;;;;;;;19.33;11.70;;;;;;;21.45;100.00;101774.69;5011268;28;20021;-70
2023/10/02 10:56:22;;;;;;;19.30;11.88;;;;;;;21.44;100.00;101773.78;5017203;28;20457;-69
2023/10/02 10:58:53;;;;;;;19.45;11.18;;;;;;;21.45;100.00;101774.69;5016981;28;20037;-70
2023/10/02 11:01:21;;;;;;;18.98;11.80;;;;;;;21.40;100.00;101766.78;5023278;28;20025;-70
2023/10/02 11:03:54;;;;;;;20.92;12.38;;;;;;;21.34;100.00;101767.66;5022470;28;20036;-69
2023/10/02 11:06:22;;;;;;;17.35;10.75;;;;;;;21.32;100.00;101764.13;5016388;28;20030;-70
2023/10/02 11:09:12;;;;;;;20.30;12.02;;;;;;;21.32;100.00;101758.84;5010959;28;20030;-70
2023/10/02 11:11:50;;;;;;;18.70;11.75;;;;;;;21.28;100.00;101762.34;5016601;28;20030;-70
2023/10/02 11:14:22;;;;;;;17.38;10.77;;;;;;;21.32;100.00;101755.31;5008700;28;20528;-70
2023/10/02 11:16:53;;;;;;;20.35;11.68;;;;;;;21.35;100.00;101753.56;5021409;28;20116;-70
2023/10/02 11:19:25;;;;;;;19.48;10.73;;;;;;;21.39;100.00;101748.34;5025351;28;20087;-70
2023/10/02 11:22:21;;;;;;;15.63;11.27;;;;;;;21.44;100.00;101757.13;5018303;28;20429;-71
2023/10/02 11:25:18;;;;;;;18.10;10.85;;;;;;;21.52;100.00;101750.09;5016633;28;20250;-70
2023/10/02 11:27:43;;;;;;;19.60;11.52;;;;;;;21.66;100.00;101741.31;5012347;28;20041;-70
2023/10/02 11:30:09;;;;;;;17.48;10.93;;;;;;;21.85;100.00;101747.47;5019392;28;20025;-70
2023/10/02 11:32:53;;;;;;;17.95;10.98;;;;;;;22.07;100.00;101744.81;5013700;28;20028;-70
2023/10/02 11:35:28;;;;;;;18.23;12.38;;;;;;;22.06;100.00;101736.00;5010733;28;20033;-70
2023/10/02 11:37:54;;;;;;;17.27;11.60;;;;;;;22.25;100.00;101735.94;5010063;28;20116;-70
2023/10/02 11:40:24;;;;;;;16.40;11.02;;;;;;;22.46;100.00;101734.13;5020056;28;20135;-70
2023/10/02 11:42:49;;;;;;;16.63;10.27;;;;;;;22.66;100.00;101733.22;5019176;28;20054;-70
2023/10/02 11:45:15;;;;;;;17.42;11.30;;;;;;;22.84;100.00;101731.34;5015392;28;20319;-70
2023/10/02 11:47:40;;;;;;;17.92;11.48;;;;;;;22.96;100.00;101728.63;5019391;28;20033;-70
2023/10/02 11:50:06;;;;;;;15.57;10.93;;;;;;;23.03;100.00;101732.13;5024079;28;20320;-70
2023/10/02 11:52:32;;;;;;;16.75;10.15;;;;;;;23.16;100.00;101725.00;5021811;28;20030;-70
2023/10/02 11:54:58;;;;;;;16.38;10.77;;;;;;;23.24;100.00;101723.16;5024381;28;20065;-70
2023/10/02 11:57:23;;;;;;;17.33;11.23;;;;;;;23.32;100.00;101715.19;5021505;28;20028;-70
2023/10/02 11:59:50;;;;;;;19.60;11.38;;;;;;;23.32;100.00;101714.28;5024594;28;20021;-70
2023/10/02 12:02:18;;;;;;;17.13;11.02;;;;;;;23.29;100.00;101716.97;5021194;28;20050;-70
2023/10/02 12:04:44;;;;;;;15.93;10.90;;;;;;;23.26;100.00;101709.97;5020578;28;20393;-70
2023/10/02 12:07:16;;;;;;;16.70;11.30;;;;;;;23.23;100.00;101712.59;5019521;28;20018;-70
2023/10/02 12:09:47;;;;;;;17.08;10.23;;;;;;;23.15;100.00;101707.41;5022797;28;20389;-71
2023/10/02 12:12:12;;;;;;;16.50;11.32;;;;;;;23.11;100.00;101706.53;5019829;28;20028;-71
2023/10/02 12:14:42;;;;;;;15.93;11.10;;;;;;;23.08;100.00;101700.41;5023063;28;20029;-70
2023/10/02 12:17:11;;;;;;;15.10;10.70;;;;;;;22.98;100.00;101699.56;5019569;28;20029;-71
2023/10/02 12:19:39;;;;;;;17.38;10.57;;;;;;;22.97;100.00;101695.19;5021875;28;20524;-71
2023/10/02 12:22:08;;;;;;;14.32;10.10;;;;;;;22.94;100.00;101695.19;5020597;28;20021;-70